Time;durP1;ratioP1;P1;durP2;ratioP2;P2;SDS_P1;SDS_P2;PMS_P1;PMS_P2;Temp;Humidity;BMP_temperature;BMP_pressure;BME280_temperature;BME280_humidity;BME280_pressure;Samples;Min_cycle;Max_cycle;Signal;HPM_P1;HPM_P2
2021/12/19 00:11:29;;;;;;;20.00;11.52;;;;;;;4.40;62.87;100609.84;7632941;32;38137;-71
2021/12/19 00:15:45;;;;;;;21.12;11.88;;;;;;;3.70;65.26;100614.88;7633097;32;39965;-72
2021/12/19 00:20:02;;;;;;;26.62;12.55;;;;;;;3.79;65.99;100612.78;7632931;32;39977;-71
2021/12/19 00:24:38;;;;;;;19.48;11.38;;;;;;;3.68;65.97;100608.84;7632524;32;39242;-71
2021/12/19 00:28:55;;;;;;;27.05;12.93;;;;;;;4.17;65.03;100598.66;7632903;32;37304;-72
2021/12/19 00:33:11;;;;;;;23.92;11.35;;;;;;;3.93;65.61;100598.25;7632932;32;39384;-71
2021/12/19 00:37:27;;;;;;;29.02;13.30;;;;;;;4.09;65.97;100600.53;7632194;32;39898;-71
2021/12/19 00:41:44;;;;;;;28.38;13.98;;;;;;;3.90;66.68;100588.72;7632427;32;38032;-72
2021/12/19 00:46:09;;;;;;;23.80;13.57;;;;;;;3.84;67.09;100594.94;7632580;32;38088;-71
2021/12/19 00:50:26;;;;;;;27.13;13.20;;;;;;;3.96;67.98;100584.34;7632763;32;39317;-71
2021/12/19 00:54:42;;;;;;;24.00;13.05;;;;;;;3.74;68.30;100579.19;7632546;32;40025;-71
2021/12/19 00:58:59;;;;;;;23.62;11.63;;;;;;;4.05;67.59;100574.16;7632434;32;38794;-71
2021/12/19 01:03:15;;;;;;;28.50;13.48;;;;;;;4.14;67.20;100562.97;7632522;32;38007;-72
2021/12/19 01:07:32;;;;;;;21.80;11.55;;;;;;;4.38;66.82;100552.53;7632427;32;39408;-71
2021/12/19 01:11:49;;;;;;;26.25;13.25;;;;;;;4.52;65.76;100547.91;7632193;32;40699;-71
2021/12/19 01:16:05;;;;;;;24.65;13.10;;;;;;;4.14;66.78;100540.56;7632207;32;37915;-71
2021/12/19 01:20:25;;;;;;;24.85;13.98;;;;;;;4.64;65.54;100535.41;7632324;32;37448;-72
2021/12/19 01:24:41;;;;;;;23.70;14.73;;;;;;;3.74;69.49;100544.12;7632274;32;39324;-71
2021/12/19 01:28:58;;;;;;;31.40;12.88;;;;;;;3.96;69.06;100554.69;7632125;32;39735;-71
2021/12/19 01:33:14;;;;;;;27.33;15.30;;;;;;;4.36;67.80;100538.37;7632019;32;39056;-71
2021/12/19 01:37:30;;;;;;;29.45;14.27;;;;;;;4.05;68.93;100531.84;7632207;32;36914;-72
2021/12/19 01:41:55;;;;;;;25.33;13.98;;;;;;;4.27;67.67;100529.69;7632033;32;39435;-71
2021/12/19 01:46:12;;;;;;;25.42;14.02;;;;;;;4.22;68.74;100512.50;7632071;32;40699;-70
2021/12/19 01:50:31;;;;;;;26.67;13.85;;;;;;;4.06;69.39;100511.91;7631611;32;37635;-71
2021/12/19 01:54:48;;;;;;;26.52;13.02;;;;;;;4.09;69.72;100514.19;7632043;32;37171;-71
2021/12/19 01:59:07;;;;;;;25.42;14.60;;;;;;;4.24;69.05;100503.16;7631859;32;40102;-71
2021/12/19 02:03:24;;;;;;;24.92;14.00;;;;;;;4.21;69.35;100495.47;7631808;32;39782;-71
2021/12/19 02:07:46;;;;;;;24.90;13.30;;;;;;;4.23;69.32;100476.38;7631659;32;38610;-72
2021/12/19 02:12:03;;;;;;;28.77;13.13;;;;;;;3.92;70.12;100473.34;7630396;32;37464;-71
2021/12/19 02:16:20;;;;;;;25.85;14.27;;;;;;;4.07;69.36;100475.78;7631631;32;40076;-72
2021/12/19 02:20:40;;;;;;;27.58;12.85;;;;;;;3.69;71.36;100468.41;7631530;32;41014;-71
2021/12/19 02:24:56;;;;;;;25.52;12.93;;;;;;;4.05;70.53;100460.84;7631430;32;37883;-71
2021/12/19 02:29:12;;;;;;;28.98;14.87;;;;;;;4.23;69.24;100452.09;7631421;32;37963;-71
2021/12/19 02:33:30;;;;;;;23.98;13.27;;;;;;;4.59;68.87;100445.25;7631438;32;40123;-72
2021/12/19 02:51:17;;;;;;;14.95;9.32;;;;;;;4.49;68.28;100419.53;7631065;32;39359;-72
2021/12/19 02:55:33;;;;;;;20.75;11.77;;;;;;;4.76;67.97;100403.19;7630906;32;40730;-70
2021/12/19 02:59:49;;;;;;;25.25;13.13;;;;;;;4.69;67.81;100391.56;7630716;32;37887;-71
2021/12/19 03:04:06;;;;;;;23.15;12.60;;;;;;;4.51;68.67;100393.16;7633331;32;37116;-71
2021/12/19 03:08:23;;;;;;;22.20;12.82;;;;;;;4.63;68.35;100378.97;7627974;32;150893;-72
2021/12/19 03:21:30;;;;;;;24.70;12.25;;;;;;;4.83;67.73;100359.88;7633811;32;36923;-71
2021/12/19 03:25:46;;;;;;;21.52;12.02;;;;;;;4.56;68.64;100332.28;7633535;32;39051;-72
2021/12/19 03:30:05;;;;;;;25.00;11.60;;;;;;;5.16;66.91;100332.59;7633520;32;40783;-72
2021/12/19 03:34:21;;;;;;;19.35;10.80;;;;;;;5.03;67.74;100338.13;7633422;32;37330;-71
2021/12/19 03:38:41;;;;;;;22.37;11.95;;;;;;;4.93;67.97;100340.50;7633743;32;37337;-72
2021/12/19 03:42:57;;;;;;;20.00;12.13;;;;;;;4.77;68.76;100340.00;7633541;32;39295;-70
2021/12/19 03:47:13;;;;;;;22.85;11.18;;;;;;;4.30;69.71;100328.72;7633281;32;40722;-71
2021/12/19 03:51:30;;;;;;;24.33;11.93;;;;;;;4.61;69.08;100324.34;7633223;32;38756;-71
2021/12/19 03:55:47;;;;;;;21.33;11.80;;;;;;;4.38;69.68;100330.31;7633262;32;37155;-71
2021/12/19 04:00:06;;;;;;;22.60;12.80;;;;;;;4.20;70.95;100333.75;7633243;32;39508;-72
2021/12/19 04:04:22;;;;;;;21.45;12.48;;;;;;;4.79;68.70;100329.78;7633276;32;39616;-71
2021/12/19 04:08:38;;;;;;;21.98;12.68;;;;;;;4.68;68.23;100335.91;7632918;32;37789;-71
2021/12/19 04:12:57;;;;;;;24.92;12.43;;;;;;;4.55;68.72;100334.12;7632874;32;37128;-71
2021/12/19 04:17:13;;;;;;;22.67;12.30;;;;;;;4.73;68.38;100337.97;7633184;32;39971;-71
2021/12/19 04:21:29;;;;;;;23.73;12.35;;;;;;;4.63;67.95;100333.06;7632876;32;40761;-71
2021/12/19 04:25:45;;;;;;;21.15;11.75;;;;;;;4.94;67.13;100320.53;7632771;32;37820;-71
2021/12/19 04:30:03;;;;;;;19.92;12.23;;;;;;;4.98;66.99;100302.81;7632948;32;37232;-71
2021/12/19 04:34:20;;;;;;;22.00;12.02;;;;;;;5.63;64.69;100297.75;7632851;32;39567;-71
2021/12/19 04:56:46;;;;;;;18.40;10.63;;;;;;;5.20;65.98;100260.81;7632635;32;39879;-71
2021/12/19 05:14:50;;;;;;;19.83;11.63;;;;;;;4.51;67.99;100255.44;7631377;32;39954;-71
2021/12/19 05:19:19;;;;;;;18.58;10.20;;;;;;;4.35;69.24;100233.56;7632408;32;38602;-71
2021/12/19 05:23:51;;;;;;;18.00;10.98;;;;;;;5.05;66.75;100233.31;7631908;32;37193;-69
2021/12/19 05:28:08;;;;;;;20.62;10.38;;;;;;;4.29;68.49;100228.00;7632310;32;40351;-71
2021/12/19 05:32:24;;;;;;;18.08;9.73;;;;;;;4.92;67.29;100218.09;7632006;32;39973;-71
2021/12/19 05:45:50;;;;;;;15.10;9.70;;;;;;;4.70;67.85;100198.78;7632189;32;39295;-71
2021/12/19 05:50:07;;;;;;;15.75;9.65;;;;;;;5.34;65.60;100193.06;7632056;32;40698;-72
2021/12/19 05:54:23;;;;;;;16.12;8.82;;;;;;;5.25;66.16;100204.19;7632244;32;38005;-72
2021/12/19 05:58:39;;;;;;;15.85;9.60;;;;;;;5.05;66.67;100200.88;7631980;32;38084;-72
2021/12/19 06:02:55;;;;;;;18.50;9.88;;;;;;;4.94;67.34;100188.97;7631897;32;39278;-71
2021/12/19 06:07:12;;;;;;;16.37;9.68;;;;;;;5.30;66.79;100181.06;7630551;32;40867;-71
2021/12/19 06:11:28;;;;;;;16.25;9.68;;;;;;;4.92;67.53;100179.44;7631606;32;39061;-71
2021/12/19 06:15:44;;;;;;;17.98;11.23;;;;;;;4.74;68.12;100177.53;7631697;32;37838;-71
2021/12/19 06:20:00;;;;;;;19.20;11.68;;;;;;;4.70;68.63;100174.47;7631585;32;39896;-71
2021/12/19 06:24:16;;;;;;;18.02;11.23;;;;;;;4.21;69.90;100166.19;7630360;32;39597;-71
2021/12/19 06:28:32;;;;;;;16.55;10.63;;;;;;;4.83;68.25;100160.81;7631382;32;38403;-71
2021/12/19 06:32:48;;;;;;;19.00;11.77;;;;;;;5.34;66.30;100149.81;7631502;32;37005;-72
2021/12/19 06:37:09;;;;;;;18.80;10.48;;;;;;;5.63;65.14;100138.16;7630107;32;40081;-71
2021/12/19 06:41:25;;;;;;;18.50;10.15;;;;;;;5.15;66.46;100147.12;7631256;32;40943;-70
2021/12/19 06:45:41;;;;;;;17.55;9.50;;;;;;;4.64;68.12;100151.88;7631019;32;37983;-71
2021/12/19 06:49:57;;;;;;;22.45;12.27;;;;;;;4.28;69.97;100131.87;7631077;32;37039;-71
2021/12/19 06:54:13;;;;;;;19.52;11.80;;;;;;;4.43;69.61;100138.78;7631160;32;40030;-71
2021/12/19 06:58:29;;;;;;;20.25;11.23;;;;;;;3.80;71.86;100123.59;7630822;32;40704;-70
2021/12/19 07:02:45;;;;;;;16.75;9.98;;;;;;;4.11;70.96;100134.31;7630592;32;37966;-71
2021/12/19 07:07:02;;;;;;;20.08;11.85;;;;;;;3.99;71.80;100130.69;7630634;32;37125;-71
2021/12/19 07:11:18;;;;;;;19.80;10.63;;;;;;;4.10;71.47;100124.56;7630436;32;39008;-71
2021/12/19 07:15:34;;;;;;;19.35;10.55;;;;;;;3.85;72.75;100116.47;7630425;32;40497;-71
2021/12/19 07:19:51;;;;;;;16.80;10.27;;;;;;;4.05;72.07;100115.47;7630218;32;37926;-71
2021/12/19 07:24:08;;;;;;;17.85;8.35;;;;;;;3.95;71.50;100118.69;7630240;32;37323;-71
2021/12/19 07:28:24;;;;;;;14.95;9.18;;;;;;;4.09;71.91;100114.00;7630168;32;39409;-70
2021/12/19 07:32:40;;;;;;;17.55;10.30;;;;;;;4.17;71.25;100108.31;7628927;32;39664;-70
2021/12/19 07:37:12;;;;;;;18.33;10.25;;;;;;;4.14;70.95;100114.97;7629940;32;37363;-70
2021/12/19 07:41:28;;;;;;;19.83;10.52;;;;;;;4.33;70.54;100096.12;7629690;32;37719;-71
2021/12/19 07:45:44;;;;;;;16.95;10.40;;;;;;;4.04;71.61;100100.34;7629603;32;39037;-72
2021/12/19 07:50:01;;;;;;;19.20;10.70;;;;;;;4.42;70.03;100105.59;7632539;32;40079;-72
2021/12/19 07:54:17;;;;;;;17.08;10.35;;;;;;;4.20;70.93;100097.06;7633435;32;37919;-70
2021/12/19 07:58:33;;;;;;;22.70;10.68;;;;;;;4.28;70.55;100109.47;7633484;32;37251;-72
2021/12/19 08:02:50;;;;;;;18.00;10.73;;;;;;;4.18;70.60;100085.69;7633369;32;40024;-71
2021/12/19 08:07:08;;;;;;;17.58;10.23;;;;;;;3.89;71.64;100074.53;7633162;32;39856;-73
2021/12/19 08:11:41;;;;;;;17.95;9.70;;;;;;;4.20;69.95;100093.56;7633110;32;39678;-71
2021/12/19 08:15:57;;;;;;;19.02;9.88;;;;;;;4.48;70.15;100093.91;7632340;32;37088;-70
2021/12/19 08:20:15;;;;;;;19.37;9.90;;;;;;;4.02;71.56;100076.28;7633296;32;39343;-71
2021/12/19 08:24:31;;;;;;;18.08;10.10;;;;;;;3.93;71.59;100081.13;7633184;32;38870;-71
2021/12/19 08:28:47;;;;;;;16.90;10.02;;;;;;;3.88;72.18;100080.13;7632802;32;38035;-71
2021/12/19 08:33:04;;;;;;;17.77;10.05;;;;;;;4.37;70.48;100080.31;7632902;32;38215;-73
2021/12/19 08:37:20;;;;;;;16.70;9.30;;;;;;;4.32;70.57;100076.41;7632954;32;39430;-70
2021/12/19 08:41:36;;;;;;;15.52;8.02;;;;;;;4.16;70.79;100065.34;7632909;32;40036;-71
2021/12/19 08:45:52;;;;;;;17.48;9.45;;;;;;;4.44;70.28;100060.28;7632818;32;38622;-71
2021/12/19 08:50:09;;;;;;;15.98;9.45;;;;;;;4.25;70.70;100050.53;7632828;32;36858;-73
2021/12/19 08:54:25;;;;;;;18.12;9.82;;;;;;;4.26;71.18;100057.56;7632763;32;39155;-71
2021/12/19 08:58:41;;;;;;;16.65;9.20;;;;;;;4.38;70.87;100049.56;7631907;32;40198;-71
2021/12/19 09:02:58;;;;;;;15.82;9.55;;;;;;;3.79;73.07;100041.00;7632575;32;38724;-71
2021/12/19 09:07:15;;;;;;;15.48;8.90;;;;;;;4.10;72.09;100032.00;7632537;32;36871;-70
2021/12/19 09:11:32;;;;;;;13.32;8.43;;;;;;;4.27;71.30;100021.44;7632399;32;40251;-70
2021/12/19 09:15:49;;;;;;;14.98;9.40;;;;;;;4.33;71.29;100004.34;7632332;32;40587;-71
2021/12/19 09:20:08;;;;;;;16.90;9.07;;;;;;;4.65;70.00;99996.06;7632213;32;38484;-71
2021/12/19 09:24:24;;;;;;;20.35;9.60;;;;;;;4.29;70.91;99995.88;7632227;32;38318;-72
2021/12/19 09:28:40;;;;;;;16.48;9.27;;;;;;;4.56;69.80;99992.84;7631751;32;39026;-71
2021/12/19 09:32:56;;;;;;;18.48;9.80;;;;;;;4.87;69.04;99977.50;7632080;32;40508;-70
2021/12/19 09:37:13;;;;;;;15.48;7.70;;;;;;;4.82;69.04;99959.25;7632403;32;38750;-71
2021/12/19 09:41:34;;;;;;;17.75;9.15;;;;;;;4.57;70.51;99956.72;7631235;32;37033;-70
2021/12/19 09:45:54;;;;;;;14.50;8.45;;;;;;;4.55;69.82;99947.19;7632309;32;39333;-71
2021/12/19 09:50:11;;;;;;;18.65;9.23;;;;;;;4.99;68.62;99937.00;7632268;32;40154;-71
2021/12/19 09:54:27;;;;;;;14.32;8.05;;;;;;;4.98;68.84;99916.44;7632029;32;38035;-70
2021/12/19 09:58:43;;;;;;;14.40;7.45;;;;;;;5.15;67.71;99909.28;7632150;32;37386;-72
2021/12/19 10:02:59;;;;;;;13.15;8.27;;;;;;;5.33;67.21;99907.53;7632170;32;40192;-69
2021/12/19 10:07:19;;;;;;;13.77;7.90;;;;;;;5.27;67.65;99899.31;7626184;32;39859;-71
2021/12/19 10:16:29;;;;;;;17.50;10.82;;;;;;;5.01;67.96;99889.75;7656993;32;38435;-71
2021/12/19 10:20:59;;;;;;;23.73;11.18;;;;;;;4.67;68.15;99877.81;7657196;32;39434;-71
2021/12/19 10:25:24;;;;;;;17.30;9.60;;;;;;;5.08;67.61;99892.38;7657401;32;41210;-72
2021/12/19 10:29:46;;;;;;;18.73;9.25;;;;;;;4.80;68.22;99869.53;7656423;32;38612;-72
2021/12/19 10:34:22;;;;;;;14.35;7.18;;;;;;;4.40;69.53;99864.72;7657301;32;38212;-72
2021/12/19 10:38:49;;;;;;;15.27;8.32;;;;;;;4.76;68.45;99859.41;7656344;32;40243;-73
2021/12/19 10:43:07;;;;;;;11.40;7.15;;;;;;;4.35;70.08;99861.03;7655537;32;40822;-73
2021/12/19 10:47:27;;;;;;;14.93;8.07;;;;;;;4.94;67.89;99850.41;7656407;32;38385;-71
2021/12/19 10:51:43;;;;;;;15.32;8.55;;;;;;;4.62;69.13;99854.25;7656460;32;37272;-72
2021/12/19 10:56:02;;;;;;;13.55;8.10;;;;;;;4.64;68.22;99843.19;7656421;32;40090;-72
2021/12/19 11:00:26;;;;;;;11.40;6.75;;;;;;;4.64;68.53;99860.22;7655885;32;39766;-73
2021/12/19 11:04:43;;;;;;;14.85;8.27;;;;;;;4.82;67.57;99840.41;7656187;32;36857;-73
2021/12/19 11:09:03;;;;;;;12.32;7.22;;;;;;;4.55;68.06;99848.09;7655594;32;37151;-71
2021/12/19 11:13:21;;;;;;;14.63;6.75;;;;;;;4.61;67.93;99844.47;7655693;32;40345;-73
2021/12/19 11:17:38;;;;;;;14.60;7.53;;;;;;;5.00;66.59;99844.91;7656666;32;39041;-72
2021/12/19 11:21:54;;;;;;;12.88;7.62;;;;;;;4.97;66.09;99823.75;7656681;32;37776;-72
2021/12/19 11:26:11;;;;;;;14.57;8.20;;;;;;;5.03;66.16;99825.50;7660255;32;36997;-73
2021/12/19 11:30:27;;;;;;;15.35;8.70;;;;;;;5.25;64.93;99820.34;7660060;32;40158;-72
2021/12/19 11:34:49;;;;;;;17.42;8.63;;;;;;;4.77;66.46;99821.38;7660086;32;40063;-72
2021/12/19 11:39:06;;;;;;;14.52;7.70;;;;;;;4.41;68.25;99798.06;7660139;32;37902;-71
2021/12/19 11:43:34;;;;;;;14.43;7.43;;;;;;;4.54;68.03;99805.97;7658782;32;37861;-72
2021/12/19 11:47:57;;;;;;;15.95;8.63;;;;;;;4.97;66.83;99798.62;7658858;32;39523;-72
2021/12/19 11:52:29;;;;;;;13.95;7.47;;;;;;;4.72;67.35;99796.94;7659877;32;40845;-72
2021/12/19 11:57:08;;;;;;;13.48;7.97;;;;;;;5.18;65.87;99780.97;7659722;32;37745;-71
2021/12/19 12:01:27;;;;;;;17.70;8.88;;;;;;;4.66;68.25;99769.00;7659840;32;37807;-72
2021/12/19 12:05:44;;;;;;;16.12;8.10;;;;;;;4.87;67.41;99762.19;7659357;32;39367;-71
2021/12/19 12:10:00;;;;;;;16.98;8.93;;;;;;;4.93;67.48;99773.13;7657775;32;39977;-72
2021/12/19 12:14:29;;;;;;;13.73;7.80;;;;;;;5.11;66.63;99767.59;7633273;32;38571;-75
2021/12/19 12:18:53;;;;;;;14.85;7.75;;;;;;;5.48;65.71;99752.94;7633375;32;37154;-72
2021/12/19 12:23:11;;;;;;;11.32;5.80;;;;;;;5.82;64.52;99756.59;7633267;32;39402;-72
2021/12/19 12:27:38;;;;;;;13.40;7.80;;;;;;;5.24;66.40;99761.94;7631853;32;40712;-74
2021/12/19 12:31:55;;;;;;;13.18;7.85;;;;;;;5.29;66.45;99746.88;7633108;32;36843;-71
2021/12/19 12:36:11;;;;;;;12.00;7.50;;;;;;;4.46;69.82;99717.19;7632095;32;37105;-72
2021/12/19 12:45:04;;;;;;;9.15;6.30;;;;;;;5.58;66.21;99699.88;7633023;32;40810;-72
2021/12/19 12:49:34;;;;;;;12.05;7.37;;;;;;;5.59;66.09;99700.72;7632958;32;38994;-72
2021/12/19 12:53:53;;;;;;;14.70;7.03;;;;;;;5.26;66.97;99700.34;7632973;32;37999;-72
2021/12/19 12:58:17;;;;;;;11.27;7.30;;;;;;;6.11;64.34;99702.50;7632828;32;39966;-71
2021/12/19 13:02:42;;;;;;;10.13;6.40;;;;;;;5.91;64.12;99700.22;7632698;32;39902;-72
2021/12/19 13:07:00;;;;;;;8.68;5.85;;;;;;;5.91;64.73;99689.41;7632380;32;38016;-74
2021/12/19 13:11:28;;;;;;;9.57;5.60;;;;;;;6.16;63.74;99697.19;7632472;32;37558;-71
2021/12/19 13:15:44;;;;;;;10.25;6.00;;;;;;;6.41;62.55;99695.94;7631660;32;40183;-72
2021/12/19 13:20:02;;;;;;;10.20;5.70;;;;;;;5.87;64.33;99696.37;7632560;32;39927;-72
2021/12/19 13:24:24;;;;;;;8.30;5.10;;;;;;;5.93;64.26;99704.34;7632508;32;38444;-72
2021/12/19 13:28:51;;;;;;;8.97;4.80;;;;;;;6.53;62.13;99692.06;7632421;32;37100;-71
2021/12/19 13:33:14;;;;;;;8.13;5.12;;;;;;;6.19;63.64;99705.63;7632321;32;39572;-71
2021/12/19 13:37:33;;;;;;;10.57;5.87;;;;;;;5.60;65.39;99700.47;7632427;32;40863;-71
2021/12/19 13:41:49;;;;;;;9.10;5.22;;;;;;;5.25;66.73;99709.50;7632284;32;36721;-70
2021/12/19 13:46:09;;;;;;;8.23;5.30;;;;;;;5.17;66.82;99711.75;7631836;32;37080;-72
2021/12/19 13:50:32;;;;;;;10.20;5.68;;;;;;;5.77;64.64;99702.41;7631110;32;40245;-72
2021/12/19 13:54:50;;;;;;;8.82;5.05;;;;;;;5.83;64.28;99698.75;7628650;32;40138;-72
2021/12/19 13:59:21;;;;;;;10.40;5.72;;;;;;;5.94;63.71;99684.31;7628191;32;37803;-73
2021/12/19 14:03:43;;;;;;;9.60;5.82;;;;;;;5.79;63.85;99684.03;7629320;32;37081;-73
2021/12/19 14:07:59;;;;;;;11.02;6.00;;;;;;;6.17;63.05;99682.56;7629765;32;40131;-73
2021/12/19 14:12:51;;;;;;;12.00;7.18;;;;;;;6.34;62.71;99667.13;7629555;32;39882;-73
2021/12/19 14:17:07;;;;;;;9.95;5.68;;;;;;;6.63;61.51;99658.91;7628758;32;36723;-71
2021/12/19 14:21:40;;;;;;;9.80;5.75;;;;;;;5.69;64.17;99659.50;7629758;32;37364;-73
2021/12/19 14:25:58;;;;;;;10.32;5.97;;;;;;;5.87;64.10;99656.59;7627747;32;39293;-72
2021/12/19 14:30:18;;;;;;;10.70;6.12;;;;;;;5.81;63.99;99655.69;7629226;32;39802;-71
2021/12/19 14:34:37;;;;;;;14.57;6.60;;;;;;;6.10;62.54;99644.00;7629272;32;37480;-72
2021/12/19 14:39:03;;;;;;;12.40;6.75;;;;;;;6.19;62.72;99639.81;7629316;32;37176;-73
2021/12/19 14:43:20;;;;;;;11.02;6.15;;;;;;;6.56;61.29;99650.97;7629304;32;38547;-72
2021/12/19 14:47:57;;;;;;;10.90;5.37;;;;;;;6.23;62.69;99646.41;7628850;32;39895;-72
2021/12/19 14:52:25;;;;;;;10.18;5.70;;;;;;;6.41;62.58;99647.22;7625853;32;37918;-72
2021/12/19 14:56:42;;;;;;;9.13;5.55;;;;;;;6.08;63.60;99651.56;7627890;32;38111;-72
2021/12/19 15:01:03;;;;;;;9.18;6.12;;;;;;;5.82;64.68;99640.28;7628589;32;39398;-72
2021/12/19 15:05:20;;;;;;;10.07;6.00;;;;;;;6.10;63.67;99634.00;7628990;32;38372;-73
2021/12/19 15:09:37;;;;;;;10.65;6.05;;;;;;;6.03;63.45;99627.13;7628255;32;37802;-73
2021/12/19 15:13:54;;;;;;;9.85;5.40;;;;;;;6.12;63.51;99636.47;7628336;32;37168;-73
2021/12/19 15:18:11;;;;;;;10.88;5.72;;;;;;;5.85;64.58;99637.09;7627982;32;39901;-72
2021/12/19 15:22:28;;;;;;;11.77;6.07;;;;;;;6.07;63.22;99633.66;7626265;32;40856;-72
2021/12/19 15:26:47;;;;;;;13.88;5.82;;;;;;;6.35;62.07;99622.75;7628226;32;37756;-72
2021/12/19 15:31:04;;;;;;;10.40;6.37;;;;;;;5.96;62.94;99628.09;7630220;32;37281;-71
2021/12/19 15:35:20;;;;;;;9.43;5.87;;;;;;;6.00;64.83;99618.44;7630127;32;39295;-72
2021/12/19 15:39:37;;;;;;;12.73;7.05;;;;;;;6.32;62.08;99623.25;7630081;32;40086;-72
2021/12/19 15:43:53;;;;;;;10.45;6.22;;;;;;;6.44;61.96;99615.03;7629779;32;37839;-72
2021/12/19 15:48:10;;;;;;;11.32;6.10;;;;;;;6.12;62.17;99614.81;7629859;32;37327;-72
2021/12/19 15:52:26;;;;;;;10.80;5.87;;;;;;;5.83;63.55;99617.56;7629221;32;40106;-73
2021/12/19 15:56:43;;;;;;;9.15;5.90;;;;;;;6.27;62.10;99620.47;7628003;32;39692;-73
2021/12/19 16:00:59;;;;;;;9.88;6.10;;;;;;;6.53;61.59;99607.28;7628524;32;37817;-72
2021/12/19 16:05:15;;;;;;;9.85;5.78;;;;;;;6.44;61.82;99615.03;7627487;32;37883;-71
2021/12/19 16:09:33;;;;;;;9.95;5.70;;;;;;;6.55;61.46;99602.44;7609202;32;40071;-72
2021/12/19 16:13:49;;;;;;;15.60;7.22;;;;;;;6.53;61.30;99588.34;7623857;32;40025;-72
2021/12/19 16:18:06;;;;;;;11.85;6.68;;;;;;;5.97;62.80;99591.84;7633086;32;37888;-72
2021/12/19 16:22:26;;;;;;;11.80;6.12;;;;;;;6.43;61.55;99591.72;7631766;32;37223;-72
2021/12/19 16:26:43;;;;;;;9.40;5.47;;;;;;;6.36;61.80;99588.38;7632587;32;39152;-72
2021/12/19 16:31:02;;;;;;;10.00;5.85;;;;;;;6.32;61.37;99604.28;7630970;32;39924;-73
2021/12/19 16:35:31;;;;;;;10.38;5.80;;;;;;;6.00;62.91;99596.78;7629896;32;38463;-72
2021/12/19 16:39:47;;;;;;;9.73;6.22;;;;;;;6.13;62.58;99608.34;7631164;32;37910;-72
2021/12/19 16:44:04;;;;;;;12.70;6.60;;;;;;;6.30;62.02;99598.31;7633349;32;39376;-72
2021/12/19 16:48:20;;;;;;;9.95;5.95;;;;;;;6.18;62.73;99593.00;7631407;32;39855;-72
2021/12/19 16:52:37;;;;;;;10.20;5.50;;;;;;;6.48;61.62;99586.38;7629612;32;38801;-70
2021/12/19 16:56:53;;;;;;;9.40;5.80;;;;;;;5.75;63.44;99593.62;7631892;32;37800;-72
2021/12/19 17:01:11;;;;;;;11.57;5.95;;;;;;;6.18;62.71;99603.00;7628942;32;38953;-72
2021/12/19 17:05:31;;;;;;;9.50;5.80;;;;;;;6.28;62.69;99589.63;7619380;32;39770;-72
2021/12/19 17:09:49;;;;;;;9.85;6.07;;;;;;;6.31;62.58;99586.44;7611579;32;37765;-72
2021/12/19 17:14:11;;;;;;;10.88;6.37;;;;;;;5.89;63.70;99594.94;7617656;32;38079;-72
2021/12/19 17:18:28;;;;;;;13.98;7.15;;;;;;;6.26;62.94;99589.06;7618619;32;40095;-72
2021/12/19 17:22:44;;;;;;;9.13;5.97;;;;;;;6.32;62.08;99571.81;7616824;32;39534;-72
2021/12/19 17:27:00;;;;;;;11.65;6.37;;;;;;;6.34;62.29;99577.78;7623372;32;37782;-72
2021/12/19 17:31:18;;;;;;;13.30;5.62;;;;;;;6.37;61.91;99577.28;7619744;32;37853;-72
2021/12/19 17:35:40;;;;;;;12.52;6.03;;;;;;;6.32;61.91;99581.81;7618190;32;39407;-72
2021/12/19 17:40:06;;;;;;;10.60;5.60;;;;;;;5.93;63.46;99590.69;7632463;32;38868;-72
2021/12/19 17:44:22;;;;;;;11.07;6.00;;;;;;;6.61;60.98;99574.37;7632311;32;38501;-74
2021/12/19 17:48:39;;;;;;;9.15;5.57;;;;;;;6.43;61.67;99569.25;7632187;32;37193;-72
2021/12/19 17:52:56;;;;;;;9.30;5.97;;;;;;;6.15;62.56;99584.53;7632182;32;39474;-72
2021/12/19 17:57:12;;;;;;;11.40;6.22;;;;;;;6.33;61.53;99583.44;7632249;32;39850;-74
2021/12/19 18:01:28;;;;;;;10.23;6.43;;;;;;;6.20;62.23;99574.59;7632110;32;37835;-73
2021/12/19 18:05:50;;;;;;;10.82;6.40;;;;;;;6.52;61.11;99570.44;7632120;32;37100;-74
2021/12/19 18:10:09;;;;;;;10.98;6.37;;;;;;;5.97;62.18;99572.91;7631907;32;39164;-74
2021/12/19 18:14:25;;;;;;;10.57;5.93;;;;;;;6.50;61.10;99564.47;7631890;32;40167;-73
2021/12/19 18:18:42;;;;;;;13.98;6.47;;;;;;;6.53;60.69;99556.66;7631597;32;38586;-72
2021/12/19 18:23:00;;;;;;;11.07;6.22;;;;;;;6.89;59.69;99564.41;7631557;32;37190;-73
2021/12/19 18:27:17;;;;;;;10.93;6.57;;;;;;;6.73;60.17;99566.13;7631644;32;38524;-72
2021/12/19 18:31:40;;;;;;;8.85;5.82;;;;;;;6.47;60.79;99551.41;7631287;32;40102;-72
2021/12/19 18:36:08;;;;;;;11.70;7.07;;;;;;;6.36;60.98;99559.44;7631275;32;37651;-72
2021/12/19 18:40:25;;;;;;;11.12;6.85;;;;;;;6.65;60.33;99553.81;7631330;32;37912;-73
2021/12/19 18:44:49;;;;;;;10.90;6.47;;;;;;;6.30;61.19;99541.47;7630056;32;39483;-73
2021/12/19 18:49:57;;;;;;;10.43;6.30;;;;;;;6.30;61.09;99536.03;7617511;32;40190;-73
2021/12/19 18:53:59;;;;;;;10.55;6.32;;;;;;;6.91;59.16;99546.00;7622677;32;37491;-74
2021/12/19 18:58:21;;;;;;;8.93;5.97;;;;;;;7.19;58.31;99541.44;7628463;32;37917;-74
2021/12/19 19:02:53;;;;;;;11.73;5.93;;;;;;;6.47;60.57;99530.59;7628767;32;40189;-73
2021/12/19 19:07:13;;;;;;;35.00;13.10;;;;;;;6.65;60.32;99532.16;7628555;32;39905;-73
2021/12/19 19:11:29;;;;;;;11.05;6.75;;;;;;;6.03;62.12;99529.69;7629315;32;38621;-73
2021/12/19 19:15:45;;;;;;;8.23;5.45;;;;;;;5.84;63.23;99532.62;7629666;32;37137;-73
2021/12/19 19:20:02;;;;;;;9.55;5.72;;;;;;;6.17;61.50;99526.41;7629539;32;39402;-72
2021/12/19 19:24:19;;;;;;;10.07;6.50;;;;;;;6.07;62.27;99520.00;7629543;32;39858;-73
2021/12/19 19:28:35;;;;;;;10.43;5.97;;;;;;;5.59;63.67;99531.16;7627593;32;38600;-72
2021/12/19 19:32:52;;;;;;;10.23;6.50;;;;;;;5.58;63.65;99536.81;7629282;32;37252;-74
2021/12/19 19:37:15;;;;;;;10.98;6.37;;;;;;;5.88;62.79;99530.25;7629166;32;40232;-74
2021/12/19 19:41:44;;;;;;;13.35;6.68;;;;;;;6.10;62.21;99519.50;7627311;32;39882;-74
2021/12/19 19:50:37;;;;;;;10.32;6.60;;;;;;;6.34;62.44;99509.28;7633686;32;37254;-73
2021/12/19 19:54:53;;;;;;;9.02;5.62;;;;;;;6.58;62.37;99505.25;7633607;32;40110;-72
2021/12/19 19:59:12;;;;;;;10.45;6.37;;;;;;;6.08;64.29;99502.72;7633543;32;40068;-74
2021/12/19 20:03:29;;;;;;;11.25;6.30;;;;;;;5.70;65.10;99510.50;7632938;32;38019;-75
2021/12/19 20:07:45;;;;;;;13.30;6.97;;;;;;;5.57;66.30;99500.84;7631428;32;37549;-74
2021/12/19 20:12:04;;;;;;;10.82;6.55;;;;;;;5.27;67.06;99487.62;7630965;32;40282;-74
2021/12/19 20:16:21;;;;;;;13.20;6.53;;;;;;;5.52;66.66;99489.94;7630377;32;40395;-73
2021/12/19 20:20:37;;;;;;;11.27;5.80;;;;;;;6.01;64.55;99479.34;7631039;32;37407;-73
2021/12/19 20:24:54;;;;;;;9.32;5.70;;;;;;;6.02;64.08;99488.28;7631115;32;37158;-74
2021/12/19 20:29:10;;;;;;;9.35;5.97;;;;;;;5.24;66.10;99494.34;7630945;32;39368;-73
2021/12/19 20:33:26;;;;;;;8.90;5.37;;;;;;;5.59;65.39;99487.09;7630960;32;40816;-75
2021/12/19 20:37:42;;;;;;;9.13;5.60;;;;;;;5.48;65.08;99480.66;7629000;32;37734;-74
2021/12/19 20:41:58;;;;;;;10.13;5.90;;;;;;;5.52;65.40;99487.25;7630820;32;36795;-74
2021/12/19 20:46:15;;;;;;;11.88;6.35;;;;;;;4.88;67.07;99499.09;7630808;32;39950;-73
2021/12/19 20:50:34;;;;;;;9.90;6.70;;;;;;;5.36;66.09;99488.03;7630677;32;39916;-74
2021/12/19 20:54:50;;;;;;;9.02;5.90;;;;;;;5.57;65.18;99492.72;7621589;32;37847;-72
2021/12/19 20:59:07;;;;;;;10.50;5.93;;;;;;;4.83;68.51;99499.00;7626669;32;38360;-73
2021/12/19 21:03:23;;;;;;;10.05;5.85;;;;;;;5.27;66.56;99501.94;7629462;32;40052;-75
2021/12/19 21:07:40;;;;;;;10.55;6.30;;;;;;;5.01;66.94;99494.47;7631103;32;40015;-74
2021/12/19 21:12:08;;;;;;;11.90;6.70;;;;;;;5.12;67.02;99498.97;7630889;32;38043;-75
2021/12/19 21:20:59;;;;;;;10.00;6.05;;;;;;;4.73;66.88;99501.50;7631407;32;39418;-74
2021/12/19 21:25:16;;;;;;;11.43;6.90;;;;;;;5.03;66.53;99509.38;7630859;32;39525;-76
2021/12/19 21:29:33;;;;;;;10.88;7.03;;;;;;;5.21;65.18;99508.34;7631151;32;37863;-75
2021/12/19 21:33:49;;;;;;;10.80;5.97;;;;;;;5.33;65.13;99499.34;7627344;32;38087;-74
2021/12/19 21:42:42;;;;;;;11.15;6.15;;;;;;;4.62;66.77;99516.69;7630876;32;40013;-76
2021/12/19 21:46:58;;;;;;;11.43;6.57;;;;;;;4.56;67.81;99517.66;7630240;32;36384;-74